Flight Track Log - Related Links

Times and Time Zones

All times are in EDT time to prevent confusion due to time zone crossing. See the EJM77 flight status page for this flight to view local times or setup timezone preferences in your user account.

Time Position Orientation Groundspeed Altitude Reporting Facility
EDT Latitude Longitude Course Direction KTS MPH feet Rate Location/Type
Thu 11:03:41 AM 44.8239 -93.2292 207° Southwest 199 229 3,300  Level Minneapolis Center
Thu 11:04:43 AM 44.7583 -93.2336 183° South 247 284 5,900 1,790 Climbing Minneapolis Center
Thu 11:05:45 AM 44.6975 -93.3058 220° Southwest 265 305 7,000 2,419 Climbing Minneapolis Center
Thu 11:06:47 AM 44.6400 -93.3681 218° Southwest 256 295 10,900 2,565 Climbing Minneapolis Center
Thu 11:07:49 AM 44.5883 -93.4311 221° Southwest 252 290 12,300 1,645 Climbing Minneapolis Center
Thu 11:08:51 AM 44.5206 -93.5100 220° Southwest 295 339 14,300 1,887 Climbing Minneapolis Center
Thu 11:09:00 AM 44.2396 -93.4517 207° Southwest  Level Estimated
Thu 11:09:53 AM 44.4567 -93.5842 220° Southwest 303 349 16,200  Level Minneapolis Center
Thu 11:10:55 AM 44.3822 -93.6572 215° Southwest 316 364 18,200 2,032 Climbing Minneapolis Center
Thu 11:11:57 AM 44.3128 -93.7122 210° Southwest 327 376 20,400 2,129 Climbing Minneapolis Center
Thu 11:12:59 AM 44.2156 -93.7900 210° Southwest 342 394 22,600 2,032 Climbing Minneapolis Center
Thu 11:14:01 AM 44.1311 -93.8583 210° Southwest 353 406 24,600 1,694 Climbing Minneapolis Center
Thu 11:15:03 AM 44.0500 -93.9228 210° Southwest 354 407 26,100 1,403 Climbing Minneapolis Center
Thu 11:16:05 AM 43.9397 -94.0108 210° Southwest 379 436 27,500 1,355 Climbing Minneapolis Center
Thu 11:17:07 AM 43.8428 -94.0872 210° Southwest 395 455 28,900 1,355 Climbing Minneapolis Center
Thu 11:18:09 AM 43.7444 -94.1653 210° Southwest 405 466 30,300 1,355 Climbing Minneapolis Center
Thu 11:19:11 AM 43.6425 -94.2447 209° Southwest 415 478 31,700 1,403 Climbing Minneapolis Center
Thu 11:20:13 AM 43.5419 -94.3233 210° Southwest 416 479 33,200 1,306 Climbing Minneapolis Center
Thu 11:21:15 AM 43.4411 -94.4006 209° Southwest 415 478 34,400 1,210 Climbing Minneapolis Center
Thu 11:22:17 AM 43.3400 -94.4806 210° Southwest 417 480 35,700 1,306 Climbing Minneapolis Center
Thu 11:23:19 AM 43.2133 -94.5644 206° Southwest 420 483 37,100 1,113 Climbing Minneapolis Center
Thu 11:24:21 AM 43.1039 -94.6294 203° Southwest 426 490 38,000 435 Climbing Minneapolis Center
Thu 11:25:23 AM 42.9928 -94.6944 203° Southwest 431 496 38,000  Level Minneapolis Center
Thu 11:26:25 AM 42.8767 -94.7628 203° Southwest 448 516 38,000  Level Minneapolis Center
Thu 11:27:26 AM 42.7636 -94.8286 203° Southwest 444 511 38,000  Level Minneapolis Center
Thu 11:28:28 AM 42.6417 -94.8994 203° Southwest 444 511 38,000  Level Minneapolis Center
Thu 11:29:30 AM 42.5269 -94.9656 203° Southwest 446 513 38,000  Level Minneapolis Center
Thu 11:30:32 AM 42.4128 -95.0331 204° Southwest 447 514 38,000 339 Level Minneapolis Center
Thu 11:31:34 AM 42.3003 -95.0961 203° Southwest 441 507 38,700 823 Climbing Minneapolis Center
Thu 11:32:36 AM 42.1675 -95.1731 203° Southwest 433 498 39,700 629 Climbing Minneapolis Center
Thu 11:33:38 AM 42.0592 -95.2350 203° Southwest 424 488 40,000 145 Climbing Minneapolis Center
Thu 11:34:40 AM 41.9486 -95.2964 202° Southwest 427 491 40,000  Level Minneapolis Center
Thu 11:35:42 AM 41.8378 -95.3603 203° Southwest 432 497 40,000  Level Minneapolis Center
Thu 11:36:44 AM 41.7256 -95.4228 203° Southwest 433 498 40,000  Level Minneapolis Center
Thu 11:37:45 AM 41.6139 -95.4847 203° Southwest 433 498 40,000  Level Minneapolis Center
Thu 11:38:47 AM 41.5008 -95.5483 203° Southwest 436 502 40,000  Level Minneapolis Center
Thu 11:39:49 AM 41.3872 -95.6125 203° Southwest 438 504 40,000  Level Minneapolis Center
Thu 11:40:51 AM 41.2583 -95.6850 203° Southwest 437 503 40,000  Level Minneapolis Center
Thu 11:41:53 AM 41.1433 -95.7333 198° South 437 503 40,000  Level Minneapolis Center
Thu 11:42:55 AM 41.0072 -95.7394 182° South 447 514 40,000  Level Minneapolis Center
Thu 11:43:57 AM 40.8828 -95.7397 180° South 446 513 40,000 194 Level Minneapolis Center
Thu 11:44:59 AM 40.7592 -95.7400 180° South 444 511 40,400 339 Climbing Minneapolis Center
Thu 11:46:01 AM 40.6364 -95.7419 181° South 441 507 40,700 293 Climbing Minneapolis Center
Thu 11:47:02 AM 40.5150 -95.7436 181° South 437 503 41,000 146 Climbing Minneapolis Center
Thu 11:48:04 AM 40.3925 -95.7447 180° South 438 504 41,000  Level Minneapolis Center
Thu 11:49:06 AM 40.2439 -95.7467 181° South 443 510 41,000  Level Minneapolis Center
Thu 11:50:08 AM 40.1208 -95.7469 180° South 442 509 41,000  Level Minneapolis Center
Thu 11:51:22 AM 39.9792 -95.7508 181° South 440 506 41,000  Level Kansas City Center
Thu 11:52:24 AM 39.8414 -95.7511 180° South 442 509 41,000  Level Kansas City Center
Thu 11:53:26 AM 39.7239 -95.7519 180° South 442 509 41,000  Level Kansas City Center
Thu 11:54:28 AM 39.5883 -95.7533 180° South 438 504 41,000  Level Kansas City Center
Thu 11:55:30 AM 39.4725 -95.7553 181° South 437 503 41,000  Level Kansas City Center
Thu 11:56:32 AM 39.3372 -95.7567 180° South 438 504 41,000  Level Kansas City Center
Thu 11:57:35 AM 39.2208 -95.7578 180° South 439 505 41,000  Level Kansas City Center
Thu 11:58:37 AM 39.0853 -95.7586 180° South 439 505 41,000  Level Kansas City Center
Thu 11:59:39 AM 38.9686 -95.7600 181° South 440 506 41,000  Level Kansas City Center
Thu 12:00:41 PM 38.8319 -95.7622 181° South 440 506 41,000  Level Kansas City Center
Thu 12:01:43 PM 38.7144 -95.7631 180° South 442 509 41,000  Level Kansas City Center
Thu 12:02:45 PM 38.5767 -95.7642 180° South 443 510 41,000  Level Kansas City Center
Thu 12:03:47 PM 38.4583 -95.7653 180° South 445 512 41,000  Level Kansas City Center
Thu 12:04:49 PM 38.3203 -95.7661 180° South 444 511 41,000  Level Kansas City Center
Thu 12:05:51 PM 38.2014 -95.7678 181° South 445 512 41,000 48 Level Kansas City Center
Thu 12:06:53 PM 38.0622 -95.7664 180° South 449 517 41,100 290 Climbing Kansas City Center
Thu 12:07:55 PM 37.9444 -95.7533 175° South 445 512 41,600 484 Climbing Kansas City Center
Thu 12:08:57 PM 37.8078 -95.7397 176° South 443 510 42,100 435 Climbing Kansas City Center
Thu 12:09:59 PM 37.6858 -95.7311 177° South 439 505 42,500 387 Climbing Kansas City Center
Thu 12:11:01 PM 37.5650 -95.7133 173° South 437 503 42,900 242 Climbing Kansas City Center
Thu 12:12:03 PM 37.4422 -95.6925 172° South 442 509 43,000 48 Climbing Kansas City Center
Thu 12:13:05 PM 37.3183 -95.6742 173° South 446 513 43,000  Level Kansas City Center
Thu 12:14:07 PM 37.1947 -95.6536 172° South 447 514 43,000  Level Kansas City Center
Thu 12:15:10 PM 37.0467 -95.6314 173° South 447 514 43,000  Level Kansas City Center
Thu 12:16:11 PM 36.9239 -95.6128 173° South 445 512 43,000  Level Kansas City Center
Thu 12:17:13 PM 36.8017 -95.5931 173° South 443 510 43,000 -48 Level Kansas City Center
Thu 12:18:15 PM 36.6797 -95.5756 173° South 442 509 42,900  Descending Kansas City Center
Thu 12:19:17 PM 36.5472 -95.5547 173° South 439 505 43,000 48 Climbing Kansas City Center
Thu 12:20:20 PM 36.4250 -95.5356 173° South 440 506 43,000 -192 Level Kansas City Center
Thu 12:21:22 PM 36.3011 -95.5158 173° South 443 510 42,600 -484 Descending Kansas City Center
Thu 12:22:24 PM 36.1797 -95.4981 173° South 443 510 42,000 -532 Descending Kansas City Center
Thu 12:23:26 PM 36.0547 -95.4789 173° South 440 506 41,500 -484 Descending Kansas City Center
Thu 12:24:28 PM 35.9325 -95.4606 173° South 441 507 41,000 -532 Descending Kansas City Center
Thu 12:25:30 PM 35.7811 -95.4372 173° South 452 520 40,400 -581 Descending Kansas City Center
Thu 12:26:32 PM 35.6539 -95.4189 173° South 458 527 39,800 -532 Descending Kansas City Center
Thu 12:27:34 PM 35.5267 -95.3994 173° South 459 528 39,300 -484 Descending Kansas City Center
Thu 12:28:36 PM 35.3983 -95.3797 173° South 463 533 38,800 -435 Descending Kansas City Center
Thu 12:29:38 PM 35.2672 -95.3611 173° South 469 540 38,400 -387 Descending Kansas City Center
Thu 12:30:40 PM 35.1392 -95.3414 173° South 467 537 38,000 -290 Descending Kansas City Center
Thu 12:31:42 PM 34.9844 -95.3189 173° South 464 534 37,800 -290 Descending Kansas City Center
Thu 12:32:44 PM 34.8553 -95.3006 173° South 465 535 37,400 -726 Descending Kansas City Center
Thu 12:33:46 PM 34.7317 -95.3283 190° South 456 525 36,300 -1,445 Descending Kansas City Center
Thu 12:35:01 PM 34.5894 -95.4208 208° Southwest 439 505 34,100 -1,911 Descending Fort Worth Center
Thu 12:36:01 PM 34.4842 -95.4989 211° Southwest 439 505 32,000 -2,200 Descending Fort Worth Center
Thu 12:37:01 PM 34.3789 -95.5717 210° Southwest 439 505 29,700 -2,200 Descending Fort Worth Center
Thu 12:38:01 PM 34.2778 -95.6417 210° Southwest 451 519 27,600 -2,200 Descending Fort Worth Center
Thu 12:39:01 PM 34.1703 -95.7167 210° Southwest 456 525 25,300 -2,450 Descending Fort Worth Center
Thu 12:40:01 PM 34.0544 -95.7917 208° Southwest 441 507 22,700 -2,450 Descending Fort Worth Center
Thu 12:41:01 PM 33.9550 -95.8611 210° Southwest 429 494 20,400 -2,269 Descending Fort Worth Center
Thu 12:42:00 PM 33.8703 -95.9200 210° Southwest 418 481 18,200 -2,300 Descending Fort Worth Center
Thu 12:43:01 PM 33.7708 -95.9917 211° Southwest 395 455 15,800 -2,231 Descending Fort Worth Center
Thu 12:44:01 PM 33.6839 -96.0481 208° Southwest 395 455 13,700 -2,300 Descending Fort Worth Center
Thu 12:45:01 PM 33.5864 -96.1169 210° Southwest 386 444 11,200 -2,250 Descending Fort Worth Center
Thu 12:46:01 PM 33.5139 -96.1653 209° Southwest 357 411 9,200 -1,100 Descending Fort Worth Center
Thu 12:47:01 PM 33.4392 -96.2161 210° Southwest 302 348 9,000 -100 Descending Fort Worth Center
Thu 12:48:01 PM 33.3856 -96.2617 215° Southwest 272 313 9,000  Level Fort Worth Center
Thu 12:49:01 PM 33.3233 -96.3219 219° Southwest 261 300 9,000 -500 Level Fort Worth Center
Thu 12:50:01 PM 33.2736 -96.3725 220° Southwest 261 300 8,000 -1,400 Descending Fort Worth Center
Thu 12:50:31 PM 33.2500 -96.4000 224° Southwest 249 287 6,900 -2,000 Descending Dallas / Fort Worth TRACON
Thu 12:51:31 PM 33.2000 -96.4667 228° Southwest 247 284 5,000 -1,526 Descending Dallas / Fort Worth TRACON
Thu 12:52:25 PM 33.1667 -96.5167 231° Southwest 233 268 4,000 -504 Descending Dallas / Fort Worth TRACON
Thu 12:53:30 PM 33.1167 -96.5833 228° Southwest 203 234 4,000  Level Dallas / Fort Worth TRACON
Thu 12:54:01 PM 33.1064 -96.6050 240° Southwest 213 245 4,000  Level Fort Worth Center
Thu 12:55:01 PM 33.0733 -96.6572 233° Southwest 218 251 4,000  Level Fort Worth Center
Thu 12:55:31 PM 33.0500 -96.7000 237° Southwest 232 267 4,000 -67 Level Dallas / Fort Worth TRACON
Thu 12:56:30 PM 33.0167 -96.7500 232° Southwest 224 258 3,900 -504 Descending Dallas / Fort Worth TRACON
Thu 12:57:30 PM 32.9667 -96.8000 220° Southwest 204 235 3,000 -446 Descending Dallas / Fort Worth TRACON
Thu 12:58:31 PM 32.9500 -96.8500 248° West 193 222 3,000 -286 Level Dallas / Fort Worth TRACON
Thu 12:59:36 PM 32.9000 -96.8833 209° Southwest 131 151 2,400 -1,050 Descending Dallas / Fort Worth TRACON
Thu 01:00:31 PM 32.8667 -96.8667 157° South 139 160 900 -1,636 Descending Dallas / Fort Worth TRACON
Thu 01:03:00 PM 32.8471 -96.8518 228° Southwest  Level Estimated

Login

Don't have an account? Register now (free) for customized features, flight alerts, and more!